Time;durP1;ratioP1;P1;durP2;ratioP2;P2;SDS_P1;SDS_P2;PMS_P1;PMS_P2;Temp;Humidity;BMP_temperature;BMP_pressure;BME280_temperature;BME280_humidity;BME280_pressure;Samples;Min_cycle;Max_cycle;Signal;HPM_P1;HPM_P2
2023/10/16 00:00:40;;;;;;;5.05;1.58;;;7.30;99.90;;;;;;4890372;29;20506;-71
2023/10/16 00:03:07;;;;;;;5.50;1.40;;;;;;;;;;4907970;29;20426;-72
2023/10/16 00:05:49;;;;;;;4.38;1.42;;;7.40;99.90;;;;;;4884540;29;20429;-72
2023/10/16 00:08:19;;;;;;;5.30;1.50;;;7.40;99.90;;;;;;4873697;29;20519;-72
2023/10/16 00:10:59;;;;;;;5.60;1.80;;;;;;;;;;4891289;29;20422;-72
2023/10/16 00:13:28;;;;;;;6.27;1.77;;;7.30;99.90;;;;;;4892638;29;20569;-72
2023/10/16 00:15:56;;;;;;;5.18;1.70;;;7.50;99.90;;;;;;4903068;29;20508;-72
2023/10/16 00:18:23;;;;;;;8.48;1.50;;;;;;;;;;4886274;29;20430;-72
2023/10/16 00:20:55;;;;;;;7.35;1.60;;;7.40;99.90;;;;;;4880130;29;20439;-72
2023/10/16 00:23:30;;;;;;;6.50;2.03;;;;;;;;;;4879320;29;20446;-72
2023/10/16 00:25:58;;;;;;;4.72;1.30;;;7.40;99.90;;;;;;4871969;29;20779;-72
2023/10/16 00:28:23;;;;;;;6.35;1.40;;;7.40;99.90;;;;;;4883013;29;20417;-72
2023/10/16 00:30:50;;;;;;;4.20;1.30;;;;;;;;;;4902743;29;20947;-72
2023/10/16 00:33:16;;;;;;;9.35;1.70;;;;;;;;;;4879339;29;20500;-72
2023/10/16 00:35:50;;;;;;;6.73;1.70;;;7.40;99.90;;;;;;4884412;29;20469;-72
2023/10/16 00:38:16;;;;;;;5.85;1.73;;;7.30;99.90;;;;;;4883057;29;20436;-72
2023/10/16 00:41:28;;;;;;;6.22;1.50;;;;;;;;;;4881963;29;20449;-72
2023/10/16 00:43:33;;;;;;;5.13;1.60;;;;;;;;;;4891822;29;20506;-72
2023/10/16 00:46:06;;;;;;;9.07;1.80;;;7.20;99.90;;;;;;4889214;29;20427;-72
2023/10/16 00:48:34;;;;;;;8.23;1.80;;;7.00;99.90;;;;;;4883340;29;20469;-72
2023/10/16 00:51:10;;;;;;;6.25;2.00;;;7.30;99.90;;;;;;4893168;29;20486;-72
2023/10/16 00:53:37;;;;;;;6.57;2.20;;;7.20;99.90;;;;;;4897671;29;20419;-72
2023/10/16 00:56:14;;;;;;;8.60;2.40;;;;;;;;;;4888925;29;20489;-72
2023/10/16 00:58:45;;;;;;;5.75;2.03;;;;;;;;;;4897484;29;20426;-72
2023/10/16 01:01:14;;;;;;;4.55;2.20;;;;;;;;;;4879647;29;20496;-72
2023/10/16 01:03:42;;;;;;;7.03;2.40;;;7.30;99.90;;;;;;4884101;29;20477;-72
2023/10/16 01:06:15;;;;;;;8.50;2.00;;;7.40;99.90;;;;;;4888220;29;20422;-72
2023/10/16 01:08:51;;;;;;;6.90;2.27;;;;;;;;;;4892131;29;20487;-73
2023/10/16 01:11:22;;;;;;;5.38;2.13;;;;;;;;;;4889982;29;20415;-73
2023/10/16 01:13:48;;;;;;;8.17;2.10;;;;;;;;;;4893119;29;20433;-72
2023/10/16 01:16:16;;;;;;;7.15;2.25;;;7.30;99.90;;;;;;4886476;29;20494;-74
2023/10/16 01:18:43;;;;;;;5.15;2.10;;;;;;;;;;4884264;29;20412;-74
2023/10/16 01:21:08;;;;;;;7.40;2.05;;;7.40;99.90;;;;;;4887485;29;20912;-72
2023/10/16 01:23:35;;;;;;;6.47;2.00;;;7.40;99.90;;;;;;4895078;29;20430;-72
2023/10/16 01:26:01;;;;;;;8.43;2.35;;;7.40;99.90;;;;;;4881998;29;20493;-74
2023/10/16 01:28:28;;;;;;;7.00;1.90;;;;;;;;;;4892067;29;20427;-72
2023/10/16 01:30:54;;;;;;;7.40;1.90;;;;;;;;;;4887517;29;20440;-72
2023/10/16 01:33:23;;;;;;;7.00;2.00;;;7.30;99.90;;;;;;4884943;29;21650;-72
2023/10/16 01:35:52;;;;;;;5.40;1.90;;;7.60;99.90;;;;;;4881913;29;20992;-74
2023/10/16 01:38:18;;;;;;;7.47;2.10;;;;;;;;;;4882941;29;20429;-74
2023/10/16 01:41:13;;;;;;;7.43;1.90;;;7.30;99.90;;;;;;4896309;29;20467;-72
2023/10/16 01:43:39;;;;;;;9.50;2.70;;;7.30;99.90;;;;;;4893095;29;20412;-71
2023/10/16 01:46:10;;;;;;;6.80;1.90;;;7.30;99.90;;;;;;4882085;29;20444;-71
2023/10/16 01:48:39;;;;;;;5.45;2.20;;;7.30;99.90;;;;;;4885557;29;20500;-71
2023/10/16 01:51:09;;;;;;;7.68;1.85;;;;;;;;;;4893408;29;20815;-71
2023/10/16 01:53:42;;;;;;;7.03;1.70;;;;;;;;;;4892904;29;20419;-71
2023/10/16 01:56:14;;;;;;;7.97;1.90;;;7.50;99.90;;;;;;4896299;29;20423;-71
2023/10/16 01:58:44;;;;;;;7.70;2.22;;;;;;;;;;4887600;29;20419;-72
2023/10/16 02:01:11;;;;;;;6.88;1.77;;;;;;;;;;4880154;29;20841;-72
2023/10/16 02:03:37;;;;;;;8.40;2.05;;;;;;;;;;4892307;29;20514;-72
2023/10/16 02:06:03;;;;;;;6.40;1.73;;;7.50;99.90;;;;;;4895421;29;20434;-71
2023/10/16 02:08:30;;;;;;;6.25;1.80;;;;;;;;;;4895915;29;20467;-72
2023/10/16 02:10:57;;;;;;;7.55;2.00;;;7.50;99.90;;;;;;4896394;29;20418;-71
2023/10/16 02:13:23;;;;;;;8.25;2.05;;;;;;;;;;4877742;29;20485;-71
2023/10/16 02:15:49;;;;;;;6.57;1.95;;;;;;;;;;4896450;29;20927;-72
2023/10/16 02:18:27;;;;;;;8.50;2.00;;;;;;;;;;4881415;29;20501;-72
2023/10/16 02:20:53;;;;;;;7.28;2.00;;;;;;;;;;4879846;29;20490;-72
2023/10/16 02:23:19;;;;;;;6.63;1.80;;;;;;;;;;4880391;29;20417;-72
2023/10/16 02:25:46;;;;;;;6.10;1.80;;;;;;;;;;4890882;29;20431;-72
2023/10/16 02:28:13;;;;;;;6.88;1.80;;;7.30;99.90;;;;;;4877478;29;20420;-72
2023/10/16 02:30:42;;;;;;;6.03;1.73;;;7.30;99.90;;;;;;4878643;29;20428;-72
2023/10/16 02:33:18;;;;;;;8.57;1.95;;;7.30;99.90;;;;;;4862903;29;20961;-72
2023/10/16 02:35:48;;;;;;;7.15;1.90;;;;;;;;;;4897218;29;20450;-72
2023/10/16 02:38:23;;;;;;;7.32;1.63;;;;;;;;;;4882824;29;20454;-72
2023/10/16 02:40:50;;;;;;;7.55;1.90;;;7.20;99.90;;;;;;4870871;29;20444;-73
2023/10/16 02:43:18;;;;;;;6.95;1.90;;;;;;;;;;4884966;29;20489;-72
2023/10/16 02:45:51;;;;;;;8.93;1.98;;;;;;;;;;4892785;29;20483;-72
2023/10/16 02:48:21;;;;;;;7.47;2.05;;;7.40;99.90;;;;;;4878511;29;20437;-72
2023/10/16 02:50:53;;;;;;;7.65;1.88;;;7.40;99.90;;;;;;4880632;29;20970;-72
2023/10/16 02:53:23;;;;;;;9.85;2.08;;;7.40;99.90;;;;;;4872000;29;20530;-72
2023/10/16 02:56:05;;;;;;;6.43;2.25;;;;;;;;;;4872168;29;20920;-72
2023/10/16 02:58:32;;;;;;;8.02;2.22;;;7.50;99.90;;;;;;4885398;29;20433;-72
2023/10/16 03:01:12;;;;;;;7.68;2.10;;;;;;;;;;4896481;29;20767;-72
2023/10/16 03:03:42;;;;;;;7.82;2.28;;;;;;;;;;4876702;29;20415;-72
2023/10/16 03:06:09;;;;;;;6.25;2.10;;;7.60;99.90;;;;;;4880373;29;20420;-72
2023/10/16 03:08:36;;;;;;;7.88;2.40;;;7.60;99.90;;;;;;4876622;29;20443;-71
2023/10/16 03:11:13;;;;;;;5.70;1.90;;;7.70;99.90;;;;;;4886423;29;20423;-72
2023/10/16 03:13:43;;;;;;;7.00;2.42;;;;;;;;;;4895173;29;20451;-71
2023/10/16 03:16:16;;;;;;;5.47;2.10;;;7.50;99.90;;;;;;4879590;29;20515;-71
2023/10/16 03:18:47;;;;;;;8.27;2.20;;;;;;;;;;4886600;29;20422;-74
2023/10/16 03:23:44;;;;;;;6.43;2.13;;;7.60;99.90;;;;;;4891971;29;20734;-74
2023/10/16 03:26:28;;;;;;;6.68;2.20;;;;;;;;;;4894342;29;20466;-74
2023/10/16 03:29:08;;;;;;;7.85;2.53;;;7.70;99.90;;;;;;4877273;29;20498;-71
2023/10/16 03:31:36;;;;;;;8.25;2.30;;;7.70;99.90;;;;;;4887822;29;20764;-74
2023/10/16 03:34:02;;;;;;;6.78;2.28;;;7.70;99.90;;;;;;4894825;29;20427;-74
2023/10/16 03:36:28;;;;;;;10.38;2.40;;;;;;;;;;4874547;29;20921;-74
2023/10/16 03:38:57;;;;;;;10.63;2.90;;;7.60;99.90;;;;;;4880108;29;20500;-74
2023/10/16 03:41:32;;;;;;;6.13;2.17;;;7.80;99.90;;;;;;4900879;29;20448;-75
2023/10/16 03:43:58;;;;;;;8.55;2.20;;;7.80;99.90;;;;;;4892517;29;20459;-74
2023/10/16 03:46:28;;;;;;;7.25;2.10;;;;;;;;;;4910544;29;20422;-75
2023/10/16 03:48:57;;;;;;;8.98;2.28;;;;;;;;;;4892529;29;20467;-74
2023/10/16 03:51:24;;;;;;;8.70;2.10;;;;;;;;;;4868738;29;20442;-74
2023/10/16 03:53:52;;;;;;;6.10;2.10;;;7.80;99.90;;;;;;4878802;29;20538;-75
2023/10/16 03:56:19;;;;;;;8.50;2.20;;;7.80;99.90;;;;;;4879557;29;20429;-75
2023/10/16 03:58:45;;;;;;;12.77;2.50;;;;;;;;;;4894815;29;20453;-75
2023/10/16 04:01:11;;;;;;;8.75;2.30;;;7.60;99.90;;;;;;4886252;29;20447;-74
2023/10/16 04:03:56;;;;;;;10.33;2.30;;;7.90;99.90;;;;;;4887639;29;20831;-74
2023/10/16 04:06:23;;;;;;;12.45;2.50;;;7.80;99.90;;;;;;4893448;29;20933;-75
2023/10/16 04:08:50;;;;;;;9.43;2.45;;;;;;;;;;4885452;29;20503;-74
2023/10/16 04:11:17;;;;;;;7.18;2.58;;;;;;;;;;4876532;29;20428;-74
2023/10/16 04:13:49;;;;;;;9.07;2.58;;;;;;;;;;4891567;29;20906;-74
2023/10/16 04:16:36;;;;;;;7.53;2.28;;;7.70;99.90;;;;;;4881417;29;20438;-74
2023/10/16 04:21:43;;;;;;;8.05;2.22;;;;;;;;;;4884842;29;20484;-74
2023/10/16 04:29:25;;;;;;;9.82;2.40;;;;;;;;;;4898357;29;20418;-75
2023/10/16 04:32:07;;;;;;;7.15;2.35;;;7.70;99.90;;;;;;4881707;29;20422;-74
2023/10/16 04:34:34;;;;;;;12.10;2.50;;;;;;;;;;4884262;29;20769;-74
2023/10/16 04:47:55;;;;;;;8.38;2.55;;;7.80;99.90;;;;;;4887387;29;20443;-72
2023/10/16 05:00:57;;;;;;;12.57;3.03;;;;;;;;;;4909242;29;20509;-72
2023/10/16 05:11:27;;;;;;;9.80;2.65;;;7.70;99.90;;;;;;4895007;29;20425;-72
2023/10/16 05:22:02;;;;;;;10.20;2.93;;;7.80;99.90;;;;;;4894026;29;20420;-72
2023/10/16 06:14:16;;;;;;;13.20;3.15;;;;;;;;;;4878081;29;20918;-71
2023/10/16 06:16:46;;;;;;;10.43;2.92;;;;;;;;;;4881234;29;20834;-70
2023/10/16 06:19:17;;;;;;;11.57;3.10;;;7.60;99.90;;;;;;4881547;29;20444;-70
2023/10/16 06:21:47;;;;;;;11.02;3.00;;;7.50;99.90;;;;;;4894236;29;20435;-71
2023/10/16 06:24:25;;;;;;;12.10;3.28;;;;;;;;;;4876080;29;20456;-70
2023/10/16 06:26:55;;;;;;;7.50;2.60;;;;;;;;;;4865189;29;20952;-72
2023/10/16 06:29:24;;;;;;;9.40;3.03;;;7.60;99.90;;;;;;4868365;29;20424;-71
2023/10/16 06:31:53;;;;;;;10.57;2.67;;;;;;;;;;4872620;29;20434;-72
2023/10/16 06:34:20;;;;;;;9.35;3.00;;;;;;;;;;4893701;29;20452;-72
2023/10/16 06:36:46;;;;;;;8.77;3.10;;;;;;;;;;4878168;29;20423;-71
2023/10/16 06:39:28;;;;;;;7.55;3.05;;;7.70;99.90;;;;;;4881581;29;20887;-72
2023/10/16 06:41:55;;;;;;;10.45;3.17;;;;;;;;;;4886006;29;20420;-72
2023/10/16 06:44:28;;;;;;;9.90;3.08;;;7.70;99.90;;;;;;4863847;29;20768;-71
2023/10/16 06:47:00;;;;;;;7.53;3.00;;;7.80;99.90;;;;;;4879583;29;20490;-71
2023/10/16 06:49:37;;;;;;;9.50;3.13;;;;;;;;;;4894136;29;20773;-71
2023/10/16 06:52:12;;;;;;;8.70;3.00;;;;;;;;;;4887060;29;20420;-71
2023/10/16 06:54:39;;;;;;;11.68;3.50;;;7.90;99.90;;;;;;4865523;29;20438;-71
2023/10/16 06:57:11;;;;;;;10.20;3.40;;;;;;;;;;4878956;29;20455;-74
2023/10/16 06:59:46;;;;;;;8.68;3.50;;;8.10;99.90;;;;;;4881572;29;20789;-74
2023/10/16 07:02:16;;;;;;;9.30;3.50;;;;;;;;;;4893701;29;20513;-74
2023/10/16 07:04:45;;;;;;;11.27;3.78;;;;;;;;;;4885117;29;20426;-74
2023/10/16 07:07:14;;;;;;;13.17;4.10;;;8.20;99.90;;;;;;4883113;29;20918;-74
2023/10/16 07:09:47;;;;;;;12.98;3.97;;;8.20;99.90;;;;;;4882650;29;20490;-74
2023/10/16 07:12:17;;;;;;;11.85;4.40;;;8.30;99.90;;;;;;4878179;29;20435;-74
2023/10/16 07:14:55;;;;;;;11.35;4.05;;;8.40;99.90;;;;;;4899421;29;20420;-73
2023/10/16 07:17:24;;;;;;;9.77;4.25;;;;;;;;;;4873382;29;20423;-73
2023/10/16 07:19:55;;;;;;;12.68;4.50;;;8.40;99.90;;;;;;4893540;29;20435;-74
2023/10/16 07:22:22;;;;;;;11.00;5.85;;;8.50;99.90;;;;;;4896116;29;20767;-73
2023/10/16 07:24:48;;;;;;;12.32;4.30;;;;;;;;;;4874999;29;20488;-73
2023/10/16 07:27:13;;;;;;;11.25;4.22;;;8.50;99.90;;;;;;4889716;29;20455;-73
2023/10/16 07:29:41;;;;;;;10.50;4.20;;;8.60;99.90;;;;;;4905170;29;20482;-73
2023/10/16 07:32:08;;;;;;;13.57;4.60;;;8.80;99.90;;;;;;4884640;29;20821;-71
2023/10/16 07:34:36;;;;;;;11.55;3.80;;;8.80;99.90;;;;;;4883205;29;20915;-71
2023/10/16 07:37:07;;;;;;;10.38;4.20;;;;;;;;;;4878177;29;20968;-71
2023/10/16 07:39:33;;;;;;;11.35;4.25;;;8.80;99.90;;;;;;4891429;29;20445;-73
2023/10/16 07:42:02;;;;;;;14.30;4.32;;;;;;;;;;4883821;29;20463;-73
2023/10/16 07:44:28;;;;;;;8.55;3.90;;;8.80;99.90;;;;;;4878112;29;20522;-73
2023/10/16 07:46:54;;;;;;;12.30;3.95;;;9.00;99.90;;;;;;4894388;29;20423;-71
2023/10/16 07:49:25;;;;;;;10.25;3.80;;;;;;;;;;4888769;29;20504;-71
2023/10/16 07:51:59;;;;;;;8.63;3.65;;;;;;;;;;4879910;29;20934;-72
2023/10/16 07:54:28;;;;;;;9.27;3.47;;;9.30;99.90;;;;;;4894419;29;20436;-71
2023/10/16 07:56:55;;;;;;;10.93;3.70;;;;;;;;;;4878985;29;20991;-71
2023/10/16 07:59:21;;;;;;;7.70;3.47;;;9.20;99.90;;;;;;4891392;29;20436;-71
2023/10/16 08:01:52;;;;;;;10.68;3.25;;;9.80;99.90;;;;;;4895195;29;20417;-71
2023/10/16 08:06:52;;;;;;;8.77;2.90;;;9.70;99.90;;;;;;4877793;29;20895;-71
2023/10/16 08:11:57;;;;;;;10.48;2.80;;;;;;;;;;4878700;29;20424;-71
2023/10/16 08:14:23;;;;;;;16.85;3.30;;;10.00;99.90;;;;;;4889914;29;20779;-71
2023/10/16 08:16:58;;;;;;;8.30;2.67;;;10.10;99.90;;;;;;4894668;29;20828;-71
2023/10/16 08:19:31;;;;;;;9.65;2.33;;;;;;;;;;4892413;29;20444;-71
2023/10/16 08:21:58;;;;;;;9.63;2.30;;;;;;;;;;4895392;29;20426;-71
2023/10/16 08:24:24;;;;;;;8.98;2.22;;;;;;;;;;4889747;29;20495;-71
2023/10/16 08:26:52;;;;;;;5.93;2.00;;;9.90;99.90;;;;;;4861137;29;20504;-71
2023/10/16 08:29:19;;;;;;;6.45;2.00;;;9.90;99.90;;;;;;4872006;29;20437;-71
2023/10/16 08:34:35;;;;;;;9.30;2.00;;;;;;;;;;4882626;29;20420;-72
2023/10/16 08:37:03;;;;;;;8.80;2.03;;;;;;;;;;4875256;29;20472;-72
2023/10/16 08:39:36;;;;;;;7.32;1.95;;;;;;;;;;4893729;29;20462;-72
2023/10/16 08:42:18;;;;;;;9.10;1.95;;;;;;;;;;4880721;29;20772;-73
2023/10/16 08:44:51;;;;;;;6.80;2.30;;;10.30;99.90;;;;;;4885686;29;20426;-72
2023/10/16 08:47:24;;;;;;;7.88;1.70;;;10.30;99.90;;;;;;4873397;29;20428;-78
2023/10/16 08:49:54;;;;;;;6.93;1.90;;;10.20;99.90;;;;;;4886519;29;20816;-78
2023/10/16 08:52:21;;;;;;;6.35;1.90;;;;;;;;;;4888913;29;20422;-77
2023/10/16 08:57:16;;;;;;;9.50;2.30;;;10.50;99.90;;;;;;4877921;29;20421;-75
2023/10/16 08:59:43;;;;;;;8.52;2.20;;;10.80;99.90;;;;;;4892447;29;20526;-77
2023/10/16 09:02:11;;;;;;;7.32;1.92;;;11.00;99.90;;;;;;4876359;29;20774;-77
2023/10/16 09:04:38;;;;;;;7.50;1.98;;;;;;;;;;4887712;29;20772;-77
2023/10/16 09:07:04;;;;;;;8.35;1.80;;;11.10;99.90;;;;;;4881569;29;20422;-77
2023/10/16 09:09:31;;;;;;;12.15;2.13;;;;;;;;;;4870886;29;20429;-76
2023/10/16 09:12:03;;;;;;;9.63;1.90;;;11.50;99.90;;;;;;4888049;29;20442;-76
2023/10/16 09:14:29;;;;;;;7.85;1.92;;;11.50;99.90;;;;;;4886178;29;20439;-78
2023/10/16 09:16:59;;;;;;;7.70;2.17;;;11.70;99.90;;;;;;4879089;29;20876;-77
2023/10/16 09:19:33;;;;;;;6.22;1.70;;;11.80;99.90;;;;;;4891638;29;20444;-78
2023/10/16 09:22:08;;;;;;;8.07;2.10;;;11.50;99.90;;;;;;4885291;29;20427;-77
2023/10/16 09:24:35;;;;;;;10.25;2.10;;;11.60;99.90;;;;;;4886847;29;21093;-77
2023/10/16 09:27:22;;;;;;;9.35;1.70;;;11.70;99.90;;;;;;4877210;29;20462;-78
2023/10/16 09:29:53;;;;;;;7.20;1.63;;;11.60;99.90;;;;;;4885434;29;20463;-77
2023/10/16 09:32:39;;;;;;;8.63;2.00;;;11.60;99.90;;;;;;4879473;29;20541;-77
2023/10/16 09:35:11;;;;;;;7.85;1.70;;;11.60;99.90;;;;;;4882938;29;20429;-77
2023/10/16 09:37:37;;;;;;;5.68;1.50;;;11.70;99.90;;;;;;4875353;29;20484;-78
2023/10/16 09:40:35;;;;;;;7.60;1.63;;;11.70;99.90;;;;;;4877933;29;20515;-77
2023/10/16 09:43:05;;;;;;;3.88;1.42;;;11.60;99.90;;;;;;4870123;29;20783;-77
2023/10/16 09:45:32;;;;;;;8.80;1.63;;;;;;;;;;4886674;29;20851;-77
2023/10/16 09:48:07;;;;;;;5.80;1.80;;;11.50;99.90;;;;;;4884481;29;20432;-77
2023/10/16 09:50:33;;;;;;;8.52;2.10;;;11.50;99.90;;;;;;4864512;29;20500;-77
2023/10/16 09:53:01;;;;;;;8.05;1.88;;;11.80;99.90;;;;;;4891896;29;20419;-77
2023/10/16 09:55:30;;;;;;;8.48;2.10;;;11.90;99.90;;;;;;4872786;29;20452;-77
2023/10/16 09:58:01;;;;;;;9.77;2.08;;;11.90;99.90;;;;;;4881092;29;20435;-77
2023/10/16 10:02:59;;;;;;;7.97;1.83;;;12.10;99.90;;;;;;4860244;29;20921;-77
2023/10/16 10:05:41;;;;;;;5.80;1.70;;;12.10;99.90;;;;;;4891597;29;20424;-77
2023/10/16 10:08:15;;;;;;;7.38;1.70;;;12.10;99.90;;;;;;4892279;29;20498;-78
2023/10/16 10:13:43;;;;;;;8.13;1.63;;;12.50;99.90;;;;;;4887981;29;20465;-78
2023/10/16 10:16:20;;;;;;;5.88;1.50;;;12.40;99.90;;;;;;4873707;29;20466;-78
2023/10/16 10:18:47;;;;;;;7.40;1.83;;;12.60;99.90;;;;;;4879014;29;20423;-78
2023/10/16 10:21:27;;;;;;;6.82;1.63;;;12.50;99.90;;;;;;4890342;29;20449;-78
2023/10/16 10:24:00;;;;;;;8.17;1.50;;;12.70;99.90;;;;;;4892234;29;20500;-78
2023/10/16 10:26:27;;;;;;;6.50;1.77;;;12.50;99.90;;;;;;4891432;29;20480;-78
2023/10/16 10:29:09;;;;;;;9.25;1.80;;;12.70;99.90;;;;;;4889596;29;20455;-77
2023/10/16 10:31:37;;;;;;;7.57;1.77;;;12.70;99.90;;;;;;4879234;29;20421;-77
2023/10/16 10:34:28;;;;;;;10.48;2.00;;;12.70;99.90;;;;;;4885188;29;20460;-77
2023/10/16 10:36:54;;;;;;;6.43;1.47;;;12.70;99.90;;;;;;4892508;29;20421;-77
2023/10/16 10:39:21;;;;;;;5.23;1.53;;;;;;;;;;4882108;29;20439;-78
2023/10/16 10:41:50;;;;;;;5.23;1.60;;;12.50;99.90;;;;;;4883621;29;20422;-78
2023/10/16 10:44:19;;;;;;;5.78;1.55;;;12.70;99.90;;;;;;4887459;29;20496;-78
2023/10/16 10:46:53;;;;;;;7.65;1.60;;;12.60;99.90;;;;;;4884157;29;20771;-77
2023/10/16 10:49:35;;;;;;;5.55;1.30;;;12.50;99.90;;;;;;4879526;29;20856;-77
2023/10/16 10:52:05;;;;;;;6.45;1.50;;;12.50;99.90;;;;;;4883388;29;20448;-77
2023/10/16 10:54:31;;;;;;;5.20;1.30;;;12.50;99.90;;;;;;4881903;29;20435;-77
2023/10/16 10:57:07;;;;;;;7.47;1.30;;;;;;;;;;4878129;29;20429;-77
2023/10/16 10:59:55;;;;;;;9.93;1.65;;;12.50;99.90;;;;;;4897815;29;20431;-77
2023/10/16 11:02:36;;;;;;;6.30;1.50;;;12.30;99.90;;;;;;4882686;29;20435;-77
2023/10/16 11:05:22;;;;;;;4.97;1.38;;;12.70;99.90;;;;;;4892106;29;20622;-77
2023/10/16 11:10:33;;;;;;;4.97;1.40;;;12.80;99.90;;;;;;4880609;29;20421;-77
2023/10/16 11:13:04;;;;;;;6.32;1.40;;;;;;;;;;4879895;29;23219;-77
2023/10/16 11:15:30;;;;;;;6.88;1.60;;;12.70;99.90;;;;;;4887435;29;20432;-77
2023/10/16 11:18:05;;;;;;;5.50;1.60;;;12.60;99.90;;;;;;4873420;29;20688;-77
2023/10/16 11:20:32;;;;;;;7.13;1.50;;;12.90;99.90;;;;;;4901120;29;20491;-78
2023/10/16 11:22:58;;;;;;;6.88;1.67;;;13.10;99.90;;;;;;4880111;29;20428;-77
2023/10/16 11:25:31;;;;;;;7.23;1.90;;;13.10;99.90;;;;;;4888366;29;20592;-77
2023/10/16 11:28:07;;;;;;;5.07;1.38;;;13.30;99.90;;;;;;4907150;29;20422;-78
2023/10/16 11:30:38;;;;;;;5.45;1.40;;;13.00;99.90;;;;;;4887879;29;20436;-77
2023/10/16 11:33:08;;;;;;;5.47;1.42;;;13.50;99.90;;;;;;4878175;29;20423;-77
2023/10/16 11:35:35;;;;;;;5.55;1.52;;;13.50;99.90;;;;;;4879587;29;20541;-77
2023/10/16 11:38:19;;;;;;;11.27;2.30;;;13.50;99.90;;;;;;4881121;29;20421;-77
2023/10/16 11:40:47;;;;;;;6.20;1.52;;;13.50;99.90;;;;;;4885097;29;20465;-77
2023/10/16 11:43:18;;;;;;;4.57;1.40;;;;;;;;;;4885056;29;20431;-77
2023/10/16 11:45:53;;;;;;;4.53;1.40;;;13.20;99.90;;;;;;4883696;29;20437;-78
2023/10/16 11:51:15;;;;;;;5.88;1.48;;;13.50;99.90;;;;;;4885901;29;20421;-78
2023/10/16 11:53:41;;;;;;;7.15;1.52;;;13.70;99.90;;;;;;4877796;29;20450;-78
2023/10/16 11:56:09;;;;;;;7.17;1.30;;;13.60;99.90;;;;;;4866845;29;20945;-77
2023/10/16 11:58:36;;;;;;;6.93;1.30;;;13.60;99.90;;;;;;4881343;29;21016;-77
2023/10/16 12:01:11;;;;;;;6.28;1.48;;;13.40;99.90;;;;;;4872334;29;20450;-77
2023/10/16 12:03:38;;;;;;;5.32;1.83;;;13.40;99.90;;;;;;4892537;29;20447;-77
2023/10/16 12:06:08;;;;;;;5.35;1.50;;;13.30;99.90;;;;;;4883155;29;20433;-78
2023/10/16 12:08:35;;;;;;;8.07;1.55;;;13.20;99.90;;;;;;4890279;29;20511;-77
2023/10/16 12:11:01;;;;;;;6.82;1.35;;;12.90;99.90;;;;;;4864347;29;20434;-77
2023/10/16 12:13:27;;;;;;;8.33;1.70;;;13.00;99.90;;;;;;4873331;29;20552;-77
2023/10/16 12:15:53;;;;;;;8.55;1.48;;;13.00;99.90;;;;;;4889925;29;20450;-77
2023/10/16 12:18:21;;;;;;;7.03;1.40;;;13.20;99.90;;;;;;4889453;29;20524;-78
2023/10/16 12:20:47;;;;;;;4.80;1.13;;;12.90;99.90;;;;;;4872486;29;20796;-78
2023/10/16 12:23:12;;;;;;;7.30;1.30;;;12.80;99.90;;;;;;4882153;29;20427;-77
2023/10/16 12:25:39;;;;;;;5.00;1.30;;;13.00;99.90;;;;;;4868989;29;20424;-78
2023/10/16 12:28:08;;;;;;;6.35;1.45;;;12.80;99.90;;;;;;4884813;29;20421;-78
2023/10/16 12:30:36;;;;;;;6.00;1.25;;;13.00;99.90;;;;;;4883622;29;21003;-77
2023/10/16 12:33:06;;;;;;;6.22;1.40;;;;;;;;;;4878249;29;20424;-78
2023/10/16 12:35:34;;;;;;;7.47;1.50;;;;;;;;;;4904068;29;20445;-78
2023/10/16 12:38:04;;;;;;;4.28;1.35;;;13.10;99.90;;;;;;4875705;29;20456;-78
2023/10/16 12:40:40;;;;;;;5.55;1.40;;;13.30;99.90;;;;;;4875281;29;20439;-78
2023/10/16 12:43:06;;;;;;;6.28;1.40;;;;;;;;;;4888500;29;20410;-78
2023/10/16 12:45:32;;;;;;;7.80;1.60;;;13.30;99.90;;;;;;4889779;29;20434;-78
2023/10/16 12:47:58;;;;;;;9.82;1.58;;;13.10;99.90;;;;;;4873710;29;20467;-78
2023/10/16 12:50:25;;;;;;;6.70;1.40;;;;;;;;;;4891382;29;20471;-78
2023/10/16 12:52:58;;;;;;;5.55;1.30;;;13.30;99.90;;;;;;4874735;29;20860;-78
2023/10/16 12:55:24;;;;;;;7.38;1.50;;;13.40;99.90;;;;;;4882172;29;20495;-77
2023/10/16 12:57:51;;;;;;;7.20;1.73;;;13.30;99.90;;;;;;4887752;29;20431;-77
2023/10/16 13:00:18;;;;;;;6.40;1.30;;;13.40;99.90;;;;;;4904316;29;20484;-77
2023/10/16 13:02:51;;;;;;;7.40;1.50;;;13.30;99.90;;;;;;4871476;29;20559;-77
2023/10/16 13:05:24;;;;;;;5.67;1.50;;;13.30;99.90;;;;;;4890512;29;20586;-77
2023/10/16 13:07:50;;;;;;;5.40;1.35;;;13.30;99.90;;;;;;4880110;29;20416;-77
2023/10/16 13:10:26;;;;;;;9.10;1.60;;;13.50;99.90;;;;;;4878512;29;20451;-78
2023/10/16 13:12:53;;;;;;;5.18;1.35;;;13.30;99.90;;;;;;4883062;29;20447;-78
2023/10/16 13:15:24;;;;;;;9.75;1.60;;;13.50;99.90;;;;;;4894809;29;20531;-78
2023/10/16 13:17:53;;;;;;;7.65;1.67;;;13.50;99.90;;;;;;4884363;29;20496;-78
2023/10/16 13:20:19;;;;;;;3.75;1.20;;;13.50;99.90;;;;;;4872621;29;22447;-78
2023/10/16 13:22:49;;;;;;;5.60;1.40;;;13.60;99.90;;;;;;4877582;29;20423;-78
2023/10/16 13:25:21;;;;;;;7.30;1.40;;;13.70;99.90;;;;;;4884122;29;20497;-78
2023/10/16 13:27:48;;;;;;;6.43;1.40;;;13.50;99.90;;;;;;4891044;29;20763;-78
2023/10/16 13:30:18;;;;;;;5.57;1.48;;;13.40;99.90;;;;;;4872477;29;20423;-78
2023/10/16 13:32:46;;;;;;;5.57;1.20;;;13.40;99.90;;;;;;4894262;29;20848;-77
2023/10/16 13:35:16;;;;;;;7.07;1.55;;;13.40;99.90;;;;;;4881377;29;20455;-78
2023/10/16 13:37:43;;;;;;;6.95;1.17;;;13.10;99.90;;;;;;4889904;29;20484;-78
2023/10/16 13:40:22;;;;;;;9.10;1.50;;;;;;;;;;4892448;29;20450;-78
2023/10/16 13:42:49;;;;;;;5.88;1.52;;;;;;;;;;4887492;29;20517;-78
2023/10/16 13:45:16;;;;;;;6.80;1.33;;;13.40;99.90;;;;;;4889853;29;20421;-78
2023/10/16 13:47:45;;;;;;;7.32;1.83;;;13.30;99.90;;;;;;4888777;29;20434;-77
2023/10/16 13:50:15;;;;;;;6.63;1.48;;;;;;;;;;4865259;29;20474;-78
2023/10/16 13:52:44;;;;;;;7.83;1.50;;;13.50;99.90;;;;;;4890854;29;20489;-78
2023/10/16 13:55:14;;;;;;;6.43;1.20;;;13.60;99.90;;;;;;4885651;29;20419;-78
2023/10/16 13:57:42;;;;;;;3.83;1.50;;;13.50;99.90;;;;;;4879684;29;20428;-78
2023/10/16 14:00:28;;;;;;;5.07;1.40;;;13.40;99.90;;;;;;4886475;29;20472;-77
2023/10/16 14:03:16;;;;;;;8.48;1.40;;;;;;;;;;4886445;29;20767;-77
2023/10/16 14:05:47;;;;;;;4.90;1.40;;;13.30;99.90;;;;;;4880310;29;20411;-77
2023/10/16 14:08:15;;;;;;;7.10;1.30;;;13.40;99.90;;;;;;4884827;29;20925;-77
2023/10/16 14:10:52;;;;;;;5.35;1.33;;;13.20;99.90;;;;;;4901891;29;20419;-77
2023/10/16 14:13:21;;;;;;;6.60;1.33;;;13.20;99.90;;;;;;4885738;29;20488;-77
2023/10/16 14:15:51;;;;;;;5.65;1.63;;;13.40;99.90;;;;;;4871392;29;20424;-77
2023/10/16 14:18:21;;;;;;;7.80;1.70;;;;;;;;;;4882624;29;20512;-78
2023/10/16 14:20:48;;;;;;;6.95;1.60;;;13.30;99.90;;;;;;4885763;29;20517;-77
2023/10/16 14:23:14;;;;;;;7.72;1.83;;;13.20;99.90;;;;;;4891973;29;20415;-77
2023/10/16 14:25:48;;;;;;;7.75;1.40;;;13.30;99.90;;;;;;4884305;29;20460;-77
2023/10/16 14:29:20;;;;;;;7.68;1.95;;;13.30;99.90;;;;;;4894181;29;20423;-77
2023/10/16 14:31:14;;;;;;;8.10;1.50;;;13.30;99.90;;;;;;4881768;29;20507;-77
2023/10/16 14:33:39;;;;;;;5.32;1.63;;;11.90;99.90;;;;;;4891810;29;20476;-78
2023/10/16 14:36:08;;;;;;;8.03;1.70;;;13.40;99.90;;;;;;4866333;29;20450;-77
2023/10/16 14:38:34;;;;;;;5.68;1.48;;;13.30;99.90;;;;;;4874377;29;20428;-77
2023/10/16 14:41:04;;;;;;;5.83;1.77;;;13.40;99.90;;;;;;4868353;29;20441;-77
2023/10/16 14:43:34;;;;;;;5.70;1.33;;;;;;;;;;4888439;29;20565;-77
2023/10/16 14:46:07;;;;;;;8.63;1.90;;;13.40;99.90;;;;;;4868050;29;20416;-78
2023/10/16 14:48:33;;;;;;;7.57;1.75;;;13.30;99.90;;;;;;4891704;29;20435;-78
2023/10/16 14:50:59;;;;;;;5.97;1.58;;;13.20;99.90;;;;;;4879047;29;20430;-78
2023/10/16 14:53:28;;;;;;;5.67;1.43;;;;;;;;;;4894320;29;20426;-78
2023/10/16 14:55:54;;;;;;;8.10;1.38;;;13.20;99.90;;;;;;4859423;29;20425;-78
2023/10/16 14:58:19;;;;;;;9.00;1.60;;;13.20;99.90;;;;;;4896498;29;20415;-78
2023/10/16 15:00:50;;;;;;;6.32;1.98;;;;;;;;;;4887495;29;20433;-77
2023/10/16 15:03:16;;;;;;;8.27;1.90;;;;;;;;;;4872989;29;20995;-78
2023/10/16 15:05:46;;;;;;;4.32;1.67;;;13.20;99.90;;;;;;4889622;29;20427;-77
2023/10/16 15:08:13;;;;;;;9.30;1.73;;;13.20;99.90;;;;;;4878801;29;20427;-78
2023/10/16 15:10:47;;;;;;;5.57;1.70;;;13.30;99.90;;;;;;4885633;29;20776;-78
2023/10/16 15:13:15;;;;;;;4.73;1.50;;;13.10;99.90;;;;;;4875594;29;20429;-78
2023/10/16 15:15:50;;;;;;;6.05;1.42;;;13.20;99.90;;;;;;4892612;29;20425;-78
2023/10/16 15:18:16;;;;;;;9.55;2.10;;;;;;;;;;4878824;29;20482;-77
2023/10/16 15:20:41;;;;;;;6.32;1.40;;;13.20;99.90;;;;;;4880012;29;20443;-77
2023/10/16 15:23:13;;;;;;;4.45;1.25;;;13.00;99.90;;;;;;4899187;29;20432;-77
2023/10/16 15:25:40;;;;;;;9.77;1.70;;;;;;;;;;4883879;29;20452;-77
2023/10/16 15:28:06;;;;;;;5.20;1.60;;;;;;;;;;4889255;29;20501;-77
2023/10/16 15:30:33;;;;;;;7.88;1.90;;;13.00;99.90;;;;;;4894462;29;20776;-77
2023/10/16 15:33:00;;;;;;;6.70;1.95;;;13.00;99.90;;;;;;4889501;29;20428;-77
2023/10/16 15:35:29;;;;;;;5.18;1.70;;;13.00;99.90;;;;;;4883266;29;20809;-78
2023/10/16 15:37:56;;;;;;;6.10;1.70;;;13.00;99.90;;;;;;4895019;29;20441;-78